Flight Track Log - Related Links

Times and Time Zones

All times are in EDT time to prevent confusion due to time zone crossing. See the EJA951 flight status page for this flight to view local times or setup timezone preferences in your user account.

Time Position Orientation Groundspeed Altitude Reporting Facility
EDT Latitude Longitude Course Direction KTS MPH feet Rate Location/Type
Mon 01:15:18 PM 30.5111 -81.6483 North 187 215 1,500  Level Jacksonville Center
Mon 01:16:19 PM 30.5569 -81.6478 29° Northeast 196 226 4,100 2,500 Climbing Jacksonville Center
Mon 01:16:54 PM 30.5719 -81.6767 301° West 213 245 5,500 2,557 Climbing Jacksonville Center
Mon 01:17:20 PM 30.5636 -81.7056 251° West 208 239 6,700 2,900 Climbing Jacksonville Center
Mon 01:17:54 PM 30.5494 -81.7394 244° Southwest 208 239 8,400 2,426 Climbing Jacksonville Center
Mon 01:18:54 PM 30.5250 -81.8003 245° Southwest 207 238 10,500 1,700 Climbing Jacksonville Center
Mon 01:19:54 PM 30.4942 -81.8775 245° Southwest 256 295 11,800 1,450 Climbing Jacksonville Center
Mon 01:20:54 PM 30.4614 -81.9528 243° Southwest 280 322 13,400 1,800 Climbing Jacksonville Center
Mon 01:21:54 PM 30.4244 -82.0372 243° Southwest 291 335 15,400 1,950 Climbing Jacksonville Center
Mon 01:22:54 PM 30.3958 -82.1267 250° West 291 335 17,300 1,800 Climbing Jacksonville Center
Mon 01:23:54 PM 30.4025 -82.2231 275° West 291 335 19,000 1,600 Climbing Jacksonville Center
Mon 01:24:54 PM 30.4114 -82.3144 276° West 291 335 20,500 1,200 Climbing Jacksonville Center
Mon 01:25:54 PM 30.4200 -82.4108 276° West 291 335 21,400 950 Climbing Jacksonville Center
Mon 01:26:54 PM 30.4267 -82.5094 275° West 298 343 22,400 850 Climbing Jacksonville Center
Mon 01:27:54 PM 30.4353 -82.6131 276° West 311 358 23,100 950 Climbing Jacksonville Center
Mon 01:28:54 PM 30.4500 -82.7239 279° West 336 387 24,300 1,300 Climbing Jacksonville Center
Mon 01:29:54 PM 30.4606 -82.8394 276° West 354 407 25,700 1,450 Climbing Jacksonville Center
Mon 01:30:54 PM 30.4733 -82.9528 277° West 360 414 27,200 1,350 Climbing Jacksonville Center
Mon 01:31:54 PM 30.4878 -83.0661 278° West 360 414 28,400 1,200 Climbing Jacksonville Center
Mon 01:32:54 PM 30.5000 -83.1867 277° West 371 427 29,600 1,200 Climbing Jacksonville Center
Mon 01:33:54 PM 30.5122 -83.3050 277° West 371 427 30,800 1,200 Climbing Jacksonville Center
Mon 01:34:54 PM 30.5264 -83.4281 278° West 376 433 32,000 1,200 Climbing Jacksonville Center
Mon 01:35:54 PM 30.5361 -83.5511 275° West 381 438 33,200 1,200 Climbing Jacksonville Center
Mon 01:36:54 PM 30.5397 -83.6764 272° West 387 445 34,400 1,200 Climbing Jacksonville Center
Mon 01:37:54 PM 30.5453 -83.7994 273° West 387 445 35,600 1,200 Climbing Jacksonville Center
Mon 01:38:54 PM 30.5464 -83.9250 271° West 387 445 36,800 1,150 Climbing Jacksonville Center
Mon 01:39:54 PM 30.5514 -84.0481 273° West 382 440 37,900 1,150 Climbing Jacksonville Center
Mon 01:40:54 PM 30.5481 -84.1856 268° West 382 440 39,100 950 Climbing Jacksonville Center
Mon 01:41:54 PM 30.5531 -84.3061 273° West 382 440 39,800 450 Climbing Jacksonville Center
Mon 01:42:54 PM 30.5725 -84.4319 280° West 382 440 40,000 100 Climbing Jacksonville Center
Mon 01:43:54 PM 30.6147 -84.5581 291° West 402 463 40,000  Level Jacksonville Center
Mon 01:44:54 PM 30.6547 -84.6917 289° West 423 487 40,000  Level Jacksonville Center
Mon 01:45:54 PM 30.6986 -84.8278 291° West 436 502 40,000  Level Jacksonville Center
Mon 01:46:54 PM 30.7383 -84.9639 289° West 443 510 40,000  Level Jacksonville Center
Mon 01:47:54 PM 30.7797 -85.0978 290° West 448 516 40,000  Level Jacksonville Center
Mon 01:48:54 PM 30.7961 -85.2311 278° West 434 499 40,000  Level Jacksonville Center
Mon 01:49:54 PM 30.7978 -85.3692 271° West 429 494 40,000  Level Jacksonville Center
Mon 01:50:54 PM 30.8014 -85.4997 272° West 423 487 40,000  Level Jacksonville Center
Mon 01:51:54 PM 30.8050 -85.6328 272° West 418 481 40,000  Level Jacksonville Center
Mon 01:52:54 PM 30.8083 -85.7683 272° West 418 481 40,000  Level Jacksonville Center
Mon 01:53:54 PM 30.8114 -85.9039 272° West 423 487 40,000  Level Jacksonville Center
Mon 01:54:54 PM 30.8103 -86.0369 269° West 418 481 40,000  Level Jacksonville Center
Mon 01:55:54 PM 30.8153 -86.1678 273° West 418 481 40,000  Level Jacksonville Center
Mon 01:56:54 PM 30.8181 -86.3033 271° West 418 481 40,000  Level Jacksonville Center
Mon 01:57:54 PM 30.8206 -86.4339 271° West 418 481 40,000  Level Jacksonville Center
Mon 01:58:54 PM 30.8231 -86.5669 271° West 418 481 40,000  Level Jacksonville Center
Mon 01:59:54 PM 30.8319 -86.6883 275° West 418 481 40,000  Level Jacksonville Center
Mon 02:00:54 PM 30.8489 -86.8244 278° West 423 487 40,000  Level Jacksonville Center
Mon 02:01:54 PM 30.8678 -86.9536 280° West 423 487 40,000  Level Jacksonville Center
Mon 02:03:32 PM 30.8967 -87.1644 279° West 418 481 40,000  Level Houston Center
Mon 02:04:34 PM 30.9200 -87.3256 280° West 420 483 40,000 290 Level Houston Center
Mon 02:05:36 PM 30.9383 -87.4592 279° West 420 483 40,600 629 Climbing Houston Center
Mon 02:06:38 PM 30.9569 -87.5911 279° West 417 480 41,300 672 Climbing Houston Center
Mon 02:07:41 PM 30.9769 -87.7325 279° West 409 471 42,000 672 Climbing Houston Center
Mon 02:08:43 PM 30.9944 -87.8600 279° West 402 463 42,700 484 Climbing Houston Center
Mon 02:09:45 PM 31.0122 -87.9864 279° West 397 457 43,000 145 Climbing Houston Center
Mon 02:10:47 PM 31.0300 -88.1142 279° West 397 457 43,000  Level Houston Center
Mon 02:11:49 PM 31.0464 -88.2439 278° West 401 461 43,000  Level Houston Center
Mon 02:12:52 PM 31.0689 -88.4025 279° West 410 472 43,000  Level Houston Center
Mon 02:13:54 PM 31.0878 -88.5358 279° West 416 479 43,000  Level Houston Center
Mon 02:14:56 PM 31.1047 -88.6703 278° West 414 476 43,000  Level Houston Center
Mon 02:15:58 PM 31.1214 -88.8039 278° West 414 476 43,000  Level Houston Center
Mon 02:17:00 PM 31.1386 -88.9350 279° West 414 476 43,000  Level Houston Center
Mon 02:18:03 PM 31.1614 -89.0986 279° West 422 486 43,000  Level Houston Center
Mon 02:19:05 PM 31.1783 -89.2325 278° West 424 488 43,000  Level Houston Center
Mon 02:20:07 PM 31.1947 -89.3661 278° West 421 484 43,000  Level Houston Center
Mon 02:21:09 PM 31.2122 -89.4994 279° West 421 484 43,000  Level Houston Center
Mon 02:22:11 PM 31.2283 -89.6331 278° West 420 483 43,000  Level Houston Center
Mon 02:23:13 PM 31.2481 -89.7928 278° West 419 482 43,000  Level Houston Center
Mon 02:24:16 PM 31.2642 -89.9269 278° West 419 482 43,000  Level Houston Center
Mon 02:25:18 PM 31.2800 -90.0603 278° West 419 482 43,000  Level Houston Center
Mon 02:26:20 PM 31.2958 -90.1956 278° West 421 484 43,000  Level Houston Center
Mon 02:27:22 PM 31.3228 -90.3292 283° West 422 486 43,000  Level Houston Center
Mon 02:28:24 PM 31.3700 -90.4892 289° West 433 498 43,000  Level Houston Center
Mon 02:29:27 PM 31.4089 -90.6225 289° West 434 499 43,000  Level Houston Center
Mon 02:30:29 PM 31.4458 -90.7569 288° West 434 499 43,000  Level Houston Center
Mon 02:31:31 PM 31.4842 -90.8917 288° West 436 502 43,000  Level Houston Center
Mon 02:32:34 PM 31.5231 -91.0281 289° West 440 506 43,000  Level Houston Center
Mon 02:33:35 PM 31.5744 -91.1842 291° West 446 513 43,000  Level Houston Center
Mon 02:34:37 PM 31.6308 -91.3164 297° West 451 519 43,000  Level Houston Center
Mon 02:35:40 PM 31.6861 -91.4497 296° West 454 522 43,000  Level Houston Center
Mon 02:36:42 PM 31.7411 -91.5831 296° West 455 524 43,000  Level Houston Center
Mon 02:37:44 PM 31.8078 -91.7447 296° West 457 526 43,000  Level Houston Center
Mon 02:38:46 PM 31.8639 -91.8803 296° West 459 528 43,000  Level Houston Center
Mon 02:39:48 PM 31.9189 -92.0144 296° West 459 528 43,000  Level Houston Center
Mon 02:40:51 PM 31.9781 -92.1619 295° West 460 529 43,000  Level Houston Center
Mon 02:41:53 PM 32.0328 -92.2961 296° West 458 527 43,000  Level Houston Center
Mon 02:42:55 PM 32.0875 -92.4303 296° West 458 527 43,000  Level Houston Center
Mon 02:43:57 PM 32.1394 -92.5639 295° West 455 524 43,000  Level Houston Center
Mon 02:44:59 PM 32.1997 -92.7100 296° West 451 519 43,000  Level Houston Center
Mon 02:46:01 PM 32.2517 -92.8439 295° West 451 519 43,000  Level Houston Center
Mon 02:46:47 PM 32.2958 -92.9508 296° West 453 521 43,000  Level Fort Worth Center
Mon 02:47:49 PM 32.3533 -93.0944 295° West 452 520 43,000  Level Fort Worth Center
Mon 02:48:51 PM 32.4067 -93.2292 295° West 452 520 43,000  Level Fort Worth Center
Mon 02:49:53 PM 32.4544 -93.3675 292° West 452 520 43,000  Level Fort Worth Center
Mon 02:50:55 PM 32.4978 -93.5047 291° West 450 518 43,000  Level Fort Worth Center
Mon 02:51:57 PM 32.5417 -93.6439 291° West 450 518 43,000  Level Fort Worth Center
Mon 02:52:59 PM 32.5867 -93.7861 291° West 452 520 43,000  Level Fort Worth Center
Mon 02:54:01 PM 32.6394 -93.9533 291° West 455 524 43,000  Level Fort Worth Center
Mon 02:55:04 PM 32.6828 -94.0950 290° West 454 522 43,000  Level Fort Worth Center
Mon 02:56:06 PM 32.7272 -94.2367 290° West 454 522 43,000  Level Fort Worth Center
Mon 02:57:08 PM 32.7711 -94.3786 290° West 455 524 43,000  Level Fort Worth Center
Mon 02:58:10 PM 32.8144 -94.5222 290° West 457 526 43,000  Level Fort Worth Center
Mon 02:59:12 PM 32.8589 -94.6642 290° West 458 527 43,000  Level Fort Worth Center
Mon 03:00:14 PM 32.9106 -94.8369 290° West 458 527 43,000  Level Fort Worth Center
Mon 03:01:16 PM 32.9539 -94.9783 290° West 457 526 43,000  Level Fort Worth Center
Mon 03:02:18 PM 33.0019 -95.1344 290° West 458 527 43,000  Level Fort Worth Center
Mon 03:03:20 PM 33.0417 -95.2644 290° West 458 527 43,000  Level Fort Worth Center
Mon 03:04:22 PM 33.0836 -95.4075 289° West 457 526 43,000  Level Fort Worth Center
Mon 03:05:25 PM 33.1269 -95.5503 290° West 456 525 43,000  Level Fort Worth Center
Mon 03:06:27 PM 33.1725 -95.7089 289° West 456 525 43,000  Level Fort Worth Center
Mon 03:07:29 PM 33.2164 -95.8517 290° West 458 527 43,000  Level Fort Worth Center
Mon 03:08:31 PM 33.2578 -95.9953 289° West 458 527 43,000  Level Fort Worth Center
Mon 03:09:33 PM 33.3097 -96.1681 290° West 460 529 43,000  Level Fort Worth Center
Mon 03:10:35 PM 33.3511 -96.3119 289° West 461 531 43,000  Level Fort Worth Center
Mon 03:11:37 PM 33.3925 -96.4561 289° West 461 531 43,000  Level Fort Worth Center
Mon 03:12:39 PM 33.4339 -96.5992 289° West 459 528 43,000  Level Fort Worth Center
Mon 03:13:42 PM 33.4836 -96.7375 293° West 459 528 43,000  Level Fort Worth Center
Mon 03:14:44 PM 33.5672 -96.8878 304° West 455 524 43,000  Level Fort Worth Center
Mon 03:15:46 PM 33.6364 -97.0144 303° West 454 522 43,000  Level Fort Worth Center
Mon 03:16:48 PM 33.7100 -97.1525 303° West 454 522 43,000  Level Fort Worth Center
Mon 03:17:50 PM 33.7719 -97.2642 304° West 453 521 43,000  Level Fort Worth Center
Mon 03:18:52 PM 33.8394 -97.3900 303° West 452 520 43,000  Level Fort Worth Center
Mon 03:19:54 PM 33.9206 -97.5397 303° West 448 516 43,000  Level Fort Worth Center
Mon 03:20:56 PM 33.9889 -97.6672 303° West 449 517 43,000  Level Fort Worth Center
Mon 03:21:59 PM 34.0569 -97.7947 303° West 450 518 43,000  Level Fort Worth Center
Mon 03:23:01 PM 34.1328 -97.9403 302° West 452 520 43,000  Level Fort Worth Center
Mon 03:24:03 PM 34.2008 -98.0672 303° West 452 520 43,000  Level Fort Worth Center
Mon 03:25:05 PM 34.2742 -98.2042 303° West 452 520 43,000  Level Fort Worth Center
Mon 03:26:07 PM 34.3289 -98.3078 303° West 453 521 43,000  Level Fort Worth Center
Mon 03:27:09 PM 34.4142 -98.4728 302° West 459 528 43,000  Level Fort Worth Center
Mon 03:28:11 PM 34.4894 -98.6144 303° West 462 532 43,000  Level Fort Worth Center
Mon 03:29:13 PM 34.5542 -98.7394 302° West 467 537 43,000  Level Fort Worth Center
Mon 03:30:16 PM 34.6292 -98.8847 302° West 467 537 43,000  Level Fort Worth Center
Mon 03:31:18 PM 34.6914 -99.0058 302° West 464 534 43,000  Level Fort Worth Center
Mon 03:32:20 PM 34.7603 -99.1406 302° West 464 534 43,000  Level Fort Worth Center
Mon 03:33:22 PM 34.8286 -99.2725 302° West 463 533 43,000  Level Fort Worth Center
Mon 03:34:24 PM 34.9086 -99.4297 302° West 457 526 43,000  Level Fort Worth Center
Mon 03:35:26 PM 34.9753 -99.5600 302° West 453 521 43,000  Level Fort Worth Center
Mon 03:36:01 PM 35.0144 -99.6383 301° West 451 519 43,000  Level Albuquerque Center
Mon 03:37:04 PM 35.0814 -99.7700 302° West 454 522 43,000  Level Albuquerque Center
Mon 03:38:06 PM 35.1472 -99.9017 301° West 452 520 43,000  Level Albuquerque Center
Mon 03:39:08 PM 35.2139 -100.0331 302° West 453 521 43,000  Level Albuquerque Center
Mon 03:40:10 PM 35.2781 -100.1647 301° West 450 518 43,000  Level Albuquerque Center
Mon 03:41:12 PM 35.3439 -100.2944 302° West 447 514 43,000  Level Albuquerque Center
Mon 03:42:14 PM 35.4211 -100.4517 301° West 447 514 43,000  Level Albuquerque Center
Mon 03:43:16 PM 35.4856 -100.5819 301° West 446 513 43,000  Level Albuquerque Center
Mon 03:44:18 PM 35.5528 -100.7200 301° West 447 514 43,000  Level Albuquerque Center
Mon 03:45:20 PM 35.6147 -100.8486 301° West 444 511 43,000  Level Albuquerque Center
Mon 03:46:22 PM 35.6781 -100.9778 301° West 443 510 43,000  Level Albuquerque Center
Mon 03:47:24 PM 35.7406 -101.1078 301° West 443 510 43,000  Level Albuquerque Center
Mon 03:48:26 PM 35.8175 -101.2653 301° West 448 516 43,000  Level Albuquerque Center
Mon 03:49:28 PM 35.8797 -101.3989 300° West 451 519 43,000  Level Albuquerque Center
Mon 03:50:30 PM 35.9436 -101.5281 301° West 449 517 43,000  Level Albuquerque Center
Mon 03:51:33 PM 36.0061 -101.6600 300° West 449 517 43,000  Level Albuquerque Center
Mon 03:52:35 PM 36.0694 -101.7931 301° West 451 519 43,000  Level Albuquerque Center
Mon 03:53:37 PM 36.1458 -101.9536 301° West 454 522 43,000  Level Albuquerque Center
Mon 03:54:39 PM 36.2067 -102.0850 300° West 447 514 43,000  Level Albuquerque Center
Mon 03:55:41 PM 36.2697 -102.2194 300° West 449 517 43,000  Level Albuquerque Center
Mon 03:56:43 PM 36.3339 -102.3536 301° West 453 521 43,000  Level Albuquerque Center
Mon 03:57:45 PM 36.3956 -102.4875 300° West 450 518 43,000  Level Albuquerque Center
Mon 03:58:47 PM 36.4581 -102.6219 300° West 450 518 43,000  Level Albuquerque Center
Mon 03:59:49 PM 36.5292 -102.7761 300° West 435 501 43,000  Level Albuquerque Center
Mon 04:00:51 PM 36.5861 -102.9000 300° West 439 505 43,000  Level Albuquerque Center
Mon 04:01:53 PM 36.6533 -103.0456 300° West 439 505 43,000  Level Albuquerque Center
Mon 04:02:55 PM 36.7097 -103.1706 299° West 435 501 43,000  Level Albuquerque Center
Mon 04:03:57 PM 36.7750 -103.3144 300° West 428 493 43,000  Level Albuquerque Center
Mon 04:04:59 PM 36.8308 -103.4372 300° West 425 489 43,000  Level Albuquerque Center
Mon 04:06:01 PM 36.8964 -103.5819 300° West 427 491 43,000  Level Albuquerque Center
Mon 04:07:03 PM 36.9517 -103.7061 299° West 426 490 43,000  Level Albuquerque Center
Mon 04:08:06 PM 37.0158 -103.8506 299° West 425 489 43,000  Level Albuquerque Center
Mon 04:09:08 PM 37.0714 -103.9728 300° West 422 486 43,000  Level Albuquerque Center
Mon 04:10:10 PM 37.1261 -104.0967 299° West 421 484 43,000  Level Albuquerque Center
Mon 04:10:46 PM 37.1631 -104.1817 299° West 427 491 43,000  Level Denver Center
Mon 04:11:48 PM 37.2303 -104.3328 299° West 437 503 43,000  Level Denver Center
Mon 04:12:50 PM 37.2861 -104.4581 299° West 430 495 43,000  Level Denver Center
Mon 04:13:52 PM 37.3383 -104.5797 298° West 416 479 43,000  Level Denver Center
Mon 04:14:54 PM 37.4019 -104.7256 299° West 419 482 43,000  Level Denver Center
Mon 04:15:55 PM 37.4561 -104.8506 299° West 420 483 43,000  Level Denver Center
Mon 04:16:57 PM 37.5197 -104.9972 299° West 423 487 43,000  Level Denver Center
Mon 04:17:59 PM 37.5758 -105.1272 299° West 434 499 43,000  Level Denver Center
Mon 04:19:01 PM 37.6444 -105.2883 298° West 462 532 43,000  Level Denver Center
Mon 04:20:03 PM 37.7058 -105.4278 299° West 473 544 43,000  Level Denver Center
Mon 04:21:05 PM 37.7653 -105.5667 298° West 472 543 43,000  Level Denver Center
Mon 04:22:06 PM 37.8308 -105.7275 297° West 466 536 43,000  Level Denver Center
Mon 04:23:08 PM 37.8892 -105.8653 298° West 465 535 43,000  Level Denver Center
Mon 04:24:10 PM 37.9569 -106.0253 298° West 464 534 43,000  Level Denver Center
Mon 04:25:12 PM 38.0144 -106.1639 298° West 463 533 43,000  Level Denver Center
Mon 04:26:13 PM 38.0711 -106.2992 298° West 457 526 43,000  Level Denver Center
Mon 04:27:15 PM 38.1303 -106.4464 297° West 458 527 43,000  Level Denver Center
Mon 04:28:17 PM 38.1975 -106.6108 298° West 454 522 43,000  Level Denver Center
Mon 04:29:19 PM 38.2528 -106.7467 297° West 452 520 43,000  Level Denver Center
Mon 04:30:20 PM 38.3144 -106.9003 297° West 451 519 43,000  Level Denver Center
Mon 04:31:22 PM 38.3714 -107.0383 298° West 443 510 43,000  Level Denver Center
Mon 04:32:23 PM 38.4167 -107.1519 297° West 443 510 43,000  Level Denver Center
Mon 04:33:25 PM 38.4869 -107.3244 298° West 441 507 43,000  Level Denver Center
Mon 04:34:39 PM 38.5383 -107.4581 296° West 441 507 43,000  Level Denver Center
Mon 04:35:41 PM 38.6067 -107.6333 297° West 434 499 43,000  Level Denver Center
Mon 04:36:43 PM 38.6597 -107.7603 298° West 425 489 43,000  Level Denver Center
Mon 04:37:45 PM 38.7194 -107.9158 296° West 431 496 43,000  Level Denver Center
Mon 04:38:47 PM 38.7714 -108.0478 297° West 434 499 43,000  Level Denver Center
Mon 04:39:48 PM 38.8306 -108.1994 297° West 429 494 43,000  Level Denver Center
Mon 04:40:50 PM 38.8828 -108.3325 297° West 432 497 43,000  Level Denver Center
Mon 04:41:52 PM 38.9425 -108.4892 296° West 434 499 43,000  Level Denver Center
Mon 04:42:54 PM 38.9931 -108.6183 297° West 426 490 43,000  Level Denver Center
Mon 04:43:56 PM 39.0425 -108.7489 296° West 424 488 43,000  Level Denver Center
Mon 04:44:57 PM 39.1042 -108.9039 297° West 430 495 43,000  Level Denver Center
Mon 04:45:59 PM 39.1583 -109.0361 298° West 431 496 43,000 -435 Level Denver Center
Mon 04:47:01 PM 39.2206 -109.1917 297° West 432 497 42,100 -1,597 Descending Denver Center
Mon 04:48:03 PM 39.2736 -109.3225 298° West 430 495 39,700 -2,281 Descending Denver Center
Mon 04:49:02 PM 39.3242 -109.4517 297° West 420 483 37,500 -2,331 Descending Salt Lake Center
Mon 04:50:04 PM 39.3872 -109.6083 298° West 437 503 35,000 -2,195 Descending Salt Lake Center
Mon 04:51:05 PM 39.4372 -109.7367 297° West 420 483 33,000 -1,463 Descending Salt Lake Center
Mon 04:52:07 PM 39.4897 -109.8694 297° West 429 494 32,000 -484 Descending Salt Lake Center
Mon 04:53:09 PM 39.5500 -110.0236 297° West 430 495 32,000  Level Salt Lake Center
Mon 04:54:10 PM 39.6025 -110.1597 297° West 434 499 32,000  Level Salt Lake Center
Mon 04:55:12 PM 39.6658 -110.3203 297° West 444 511 32,000  Level Salt Lake Center
Mon 04:56:13 PM 39.7181 -110.4564 297° West 443 510 32,000 -98 Level Salt Lake Center
Mon 04:57:15 PM 39.7778 -110.6136 296° West 438 504 31,800 -774 Descending Salt Lake Center
Mon 04:58:17 PM 39.8278 -110.7433 297° West 425 489 30,400 -1,610 Descending Salt Lake Center
Mon 04:59:18 PM 39.8747 -110.8653 297° West 400 460 28,500 -1,463 Descending Salt Lake Center
Mon 05:00:20 PM 39.9269 -111.0022 296° West 382 440 27,400 -1,452 Descending Salt Lake Center
Mon 05:01:22 PM 39.9719 -111.1214 296° West 381 438 25,500 -2,195 Descending Salt Lake Center
Mon 05:02:23 PM 40.0211 -111.2525 296° West 368 423 22,900 -2,341 Descending Salt Lake Center
Mon 05:03:25 PM 40.0608 -111.3631 295° West 335 386 20,700 -2,049 Descending Salt Lake Center
Mon 05:04:26 PM 40.1011 -111.4706 296° West 331 381 18,700 -2,039 Descending Salt Lake Center
Mon 05:05:08 PM 40.1242 -111.5497 291° West 316 364 17,200 -2,032 Descending Salt Lake Center
Mon 05:05:28 PM 40.1397 -111.5733 311° West 318 366 16,600 -1,714 Descending Salt Lake Center
Mon 05:05:50 PM 40.1511 -111.6192 288° West 300 345 16,000 -871 Descending Salt Lake Center
Mon 05:06:30 PM 40.1728 -111.6633 303° West 273 314 15,700 -904 Descending Salt Lake Center
Mon 05:07:03 PM 40.1969 -111.7186 300° West 266 306 14,900 -1,475 Descending Salt Lake Center
Mon 05:07:31 PM 40.2203 -111.7369 329° Northwest 267 307 14,200 -1,869 Descending Salt Lake Center
Mon 05:08:04 PM 40.2494 -111.7878 307° West 267 307 13,000 -1,742 Descending Salt Lake Center
Mon 05:08:33 PM 40.2711 -111.8067 326° Northwest 267 307 12,400 -1,333 Descending Salt Lake Center
Mon 05:08:58 PM 40.3006 -111.8492 312° West 263 303 11,800 -984 Descending Salt Lake Center
Mon 05:09:34 PM 40.3258 -111.8675 331° Northwest 256 295 11,400 -658 Descending Salt Lake Center
Mon 05:10:11 PM 40.3703 -111.9183 319° Northwest 264 304 11,000 -387 Descending Salt Lake Center
Mon 05:10:36 PM 40.3847 -111.9244 342° North 262 302 11,000 -197 Level Salt Lake Center
Mon 05:11:12 PM 40.4353 -111.9414 346° North 245 282 10,800 -590 Descending Salt Lake Center
Mon 05:11:37 PM 40.4631 -111.9392 North 231 266 10,400 -1,000 Descending Salt Lake Center
Mon 05:11:54 PM 40.4786 -111.9436 348° North 221 254 10,100 -1,161 Descending Salt Lake Center
Mon 05:12:39 PM 40.5258 -111.9442 359° North 226 260 9,200 -1,180 Descending Salt Lake Center
Mon 05:12:55 PM 40.5425 -111.9503 344° North 227 261 8,900 -1,065 Descending Salt Lake Center
Mon 05:13:41 PM 40.5825 -111.9517 358° North 200 230 8,100 -1,200 Descending Salt Lake Center
Mon 05:13:55 PM 40.5975 -111.9569 345° North 181 208 7,700 -984 Descending Salt Lake Center
Mon 05:14:42 PM 40.6303 -111.9567 360° North 178 205 7,100 -822 Descending Salt Lake Center
Mon 05:15:08 PM 40.6522 -111.9611 351° North 160 184 6,700 -871 Descending Salt Lake Center
Mon 05:15:44 PM 40.6753 -111.9614 359° North 165 190 6,200 -822 Descending Salt Lake Center
Mon 05:16:21 PM 40.7050 -111.9658 354° North 161 185 5,700 -689 Descending Salt Lake Center
Mon 05:16:45 PM 40.7169 -111.9656 North 152 175 5,500 -833 Descending Salt Lake Center
Mon 05:16:57 PM 40.7250 -111.9703 336° Northwest 122 140 5,200 -677 Descending Salt Lake Center
Mon 05:17:47 PM 40.7500 -111.9703 360° North 126 145 4,800 -655 Descending Salt Lake Center
Mon 05:17:52 PM 40.7581 -111.9733 344° North 125 144 4,600 -590 Descending Salt Lake Center
Mon 05:18:48 PM 40.7842 -111.9736 360° North 125 144 4,200 -429 Descending Salt Lake Center
Mon 05:20:00 PM 40.7833 -111.9667 North  Level FlightAware Approximate

Login

Don't have an account? Register now (free) for customized features, flight alerts, and more!